Time;durP1;ratioP1;P1;durP2;ratioP2;P2;SDS_P1;SDS_P2;PMS_P1;PMS_P2;Temp;Humidity;BMP_temperature;BMP_pressure;BME280_temperature;BME280_humidity;BME280_pressure;Samples;Min_cycle;Max_cycle;Signal;HPM_P1;HPM_P2
2022/06/08 00:01:25;;;;;;;46.83;9.80;;;;;;;;;;5010800;28;20041;-59
2022/06/08 00:03:57;;;;;;;51.03;9.70;;;;;;;;;;5011209;28;20133;-59
2022/06/08 00:06:24;;;;;;;55.80;11.43;;;;;;;;;;5011469;28;20033;-56
2022/06/08 00:08:51;;;;;;;53.70;10.63;;;;;;;;;;4994090;28;20038;-58
2022/06/08 00:11:19;;;;;;;69.68;10.95;;;;;;;;;;5009353;28;20053;-58
2022/06/08 00:13:46;;;;;;;61.88;11.55;;;;;;;;;;4988601;28;20034;-56
2022/06/08 00:16:14;;;;;;;70.63;10.95;;;;;;;;;;4989725;28;20059;-56
2022/06/08 00:18:42;;;;;;;64.97;11.35;;;;;;;;;;4971047;28;20027;-57
2022/06/08 00:21:10;;;;;;;56.03;11.95;;;;;;;;;;4988874;28;20030;-58
2022/06/08 00:23:37;;;;;;;47.55;10.55;;;;;;;;;;4971463;28;20038;-54
2022/06/08 00:26:05;;;;;;;62.15;11.68;;;;;;;;;;4973712;28;20034;-56
2022/06/08 00:28:32;;;;;;;60.47;12.20;;;;;;;;;;4988179;28;20030;-57
2022/06/08 00:30:59;;;;;;;61.53;12.32;;;;;;;;;;4989309;28;20030;-57
2022/06/08 00:33:26;;;;;;;55.85;12.65;;;;;;;;;;4986888;28;20037;-56
2022/06/08 00:35:54;;;;;;;59.67;12.35;;;;;;;;;;4987426;28;20137;-56
2022/06/08 00:38:21;;;;;;;68.07;13.45;;;;;;;;;;4991247;28;20030;-56
2022/06/08 00:40:54;;;;;;;61.03;12.68;;;;;;;;;;4990030;28;20037;-54
2022/06/08 00:43:21;;;;;;;47.15;13.60;;;;;;;;;;4990550;28;20037;-54
2022/06/08 00:45:49;;;;;;;60.40;13.07;;;;;;;;;;4991303;28;20076;-56
2022/06/08 00:48:17;;;;;;;59.90;14.32;;;;;;;;;;4992769;28;20555;-56
2022/06/08 00:51:09;;;;;;;56.22;13.13;;;;;;;;;;4993454;28;20079;-54
2022/06/08 00:56:56;;;;;;;56.72;13.07;;;;;;;;;;4993317;28;20081;-56
2022/06/08 01:02:39;;;;;;;60.67;14.50;;;;;;;;;;4984825;28;20061;-53
2022/06/08 01:05:24;;;;;;;69.72;14.20;;;;;;;;;;4991158;28;20034;-56
2022/06/08 01:07:53;;;;;;;64.90;14.25;;;;;;;;;;4991520;28;20053;-58
2022/06/08 01:10:21;;;;;;;51.00;13.50;;;;;;;;;;5000855;28;20592;-54
2022/06/08 01:12:48;;;;;;;49.72;13.68;;;;;;;;;;5013524;28;20033;-56
2022/06/08 01:15:17;;;;;;;59.45;14.90;;;;;;;;;;5013918;28;20054;-54
2022/06/08 01:17:44;;;;;;;58.92;14.32;;;;;;;;;;5014071;28;20029;-55
2022/06/08 01:20:11;;;;;;;48.92;13.90;;;;;;;;;;5013407;28;20034;-53
2022/06/08 01:22:39;;;;;;;52.70;13.48;;;;;;;;;;5013592;28;20477;-53
2022/06/08 01:25:07;;;;;;;51.15;13.52;;;;;;;;;;5013982;28;20033;-55
2022/06/08 01:27:46;;;;;;;54.90;14.73;;;;;;;;;;5004725;28;20026;-54
2022/06/08 01:30:15;;;;;;;54.95;14.30;;;;;;;;;;5006556;28;20032;-55
2022/06/08 01:32:57;;;;;;;57.55;14.40;;;;;;;;;;5033413;28;20414;-56
2022/06/08 01:35:44;;;;;;;47.78;13.50;;;;;;;;;;5018937;28;20035;-55
2022/06/08 01:38:17;;;;;;;56.97;12.88;;;;;;;;;;4956089;28;20042;-55
2022/06/08 01:41:20;;;;;;;55.90;14.90;;;;;;;;;;5025660;28;20029;-53
2022/06/08 01:44:08;;;;;;;53.00;13.38;;;;;;;;;;4953740;29;20086;-52
2022/06/08 01:46:41;;;;;;;52.53;13.63;;;;;;;;;;5030446;28;20037;-54
2022/06/08 01:49:18;;;;;;;41.72;12.77;;;;;;;;;;5034095;28;20033;-51
2022/06/08 01:52:04;;;;;;;55.85;13.25;;;;;;;;;;5024790;28;20064;-53
2022/06/08 01:54:34;;;;;;;51.72;12.90;;;;;;;;;;5034041;28;20088;-52
2022/06/08 01:57:09;;;;;;;40.85;12.70;;;;;;;;;;5033980;28;20444;-49
2022/06/08 01:59:39;;;;;;;52.97;13.00;;;;;;;;;;5033891;28;20029;-55
2022/06/08 02:02:24;;;;;;;40.17;12.00;;;;;;;;;;5033864;28;20029;-53
2022/06/08 02:04:53;;;;;;;48.85;12.38;;;;;;;;;;5033554;28;20129;-51
2022/06/08 02:07:39;;;;;;;48.88;12.38;;;;;;;;;;5035068;28;20025;-54
2022/06/08 02:10:24;;;;;;;47.58;12.20;;;;;;;;;;5035540;28;20025;-50
2022/06/08 02:12:54;;;;;;;35.45;11.75;;;;;;;;;;5034357;28;20044;-53
2022/06/08 02:15:32;;;;;;;42.70;11.82;;;;;;;;;;5033364;28;20053;-53
2022/06/08 02:18:02;;;;;;;48.40;12.90;;;;;;;;;;5034425;28;20034;-56
2022/06/08 02:20:29;;;;;;;47.28;12.00;;;;;;;;;;5034201;28;20482;-51
2022/06/08 02:22:58;;;;;;;45.03;12.00;;;;;;;;;;5034301;28;20057;-51
2022/06/08 02:25:37;;;;;;;47.15;13.23;;;;;;;;;;5034475;28;20510;-52
2022/06/08 02:28:04;;;;;;;40.65;11.90;;;;;;;;;;5034207;28;20388;-50
2022/06/08 02:30:34;;;;;;;34.63;12.38;;;;;;;;;;5033787;28;20462;-52
2022/06/08 02:36:15;;;;;;;44.65;11.98;;;;;;;;;;5034866;28;20052;-52
2022/06/08 02:38:45;;;;;;;37.67;11.40;;;;;;;;;;5033785;28;20479;-51
2022/06/08 02:41:13;;;;;;;37.42;12.05;;;;;;;;;;5033459;28;20078;-48
2022/06/08 02:43:40;;;;;;;34.17;10.75;;;;;;;;;;5034096;28;20045;-49
2022/06/08 02:46:10;;;;;;;43.53;12.95;;;;;;;;;;5033761;28;20026;-53
2022/06/08 02:48:37;;;;;;;35.92;11.38;;;;;;;;;;5033440;28;20026;-52
2022/06/08 02:51:04;;;;;;;37.85;11.98;;;;;;;;;;5034001;28;20459;-50
2022/06/08 02:53:31;;;;;;;35.10;11.57;;;;;;;;;;5033600;28;20025;-50
2022/06/08 02:56:07;;;;;;;38.72;11.20;;;;;;;;;;5033481;28;20032;-50
2022/06/08 02:58:40;;;;;;;31.60;11.45;;;;;;;;;;5033973;28;20104;-52
2022/06/08 03:01:12;;;;;;;32.83;11.43;;;;;;;;;;5033566;28;20029;-53
2022/06/08 03:03:57;;;;;;;32.67;11.25;;;;;;;;;;5033121;28;20484;-49
2022/06/08 03:06:31;;;;;;;47.72;11.55;;;;;;;;;;5033394;28;20057;-49
2022/06/08 03:08:59;;;;;;;36.00;12.05;;;;;;;;;;5033968;28;20025;-53
2022/06/08 03:11:27;;;;;;;37.72;11.48;;;;;;;;;;5033233;28;20100;-51
2022/06/08 03:13:56;;;;;;;33.17;11.27;;;;;;;;;;5033041;28;20080;-49
2022/06/08 03:16:29;;;;;;;27.83;9.98;;;;;;;;;;5033334;28;20051;-50
2022/06/08 03:18:57;;;;;;;28.73;10.70;;;;;;;;;;5033260;28;20044;-48
2022/06/08 03:21:24;;;;;;;27.42;11.07;;;;;;;;;;5032747;28;20113;-50
2022/06/08 03:23:51;;;;;;;31.23;10.35;;;;;;;;;;5032987;28;20037;-53
2022/06/08 03:26:19;;;;;;;31.40;10.35;;;;;;;;;;5033069;28;20029;-50
2022/06/08 03:28:47;;;;;;;31.58;10.85;;;;;;;;;;5032263;28;20064;-52
2022/06/08 03:31:14;;;;;;;27.27;10.05;;;;;;;;;;5033076;28;20514;-48
2022/06/08 03:33:41;;;;;;;31.30;10.20;;;;;;;;;;5032777;28;20025;-51
2022/06/08 03:36:08;;;;;;;31.45;10.63;;;;;;;;;;5032953;28;20554;-52
2022/06/08 03:38:35;;;;;;;36.95;12.15;;;;;;;;;;5032880;28;20029;-51
2022/06/08 03:41:02;;;;;;;32.53;10.77;;;;;;;;;;5015197;28;20026;-51
2022/06/08 03:43:29;;;;;;;26.30;10.05;;;;;;;;;;5033020;28;20075;-49
2022/06/08 03:46:02;;;;;;;28.60;11.18;;;;;;;;;;5032655;28;20045;-51
2022/06/08 03:48:29;;;;;;;31.33;11.48;;;;;;;;;;5032247;28;20033;-52
2022/06/08 03:50:57;;;;;;;30.42;10.45;;;;;;;;;;5032880;28;20029;-50
2022/06/08 03:53:38;;;;;;;27.88;10.93;;;;;;;;;;5032582;28;20483;-52
2022/06/08 03:56:06;;;;;;;32.83;10.60;;;;;;;;;;5032166;28;20517;-51
2022/06/08 03:58:33;;;;;;;26.30;10.02;;;;;;;;;;5032650;28;20033;-48
2022/06/08 04:01:01;;;;;;;28.23;10.45;;;;;;;;;;5032630;28;20025;-48
2022/06/08 04:03:28;;;;;;;30.83;10.25;;;;;;;;;;5032215;28;20029;-48
2022/06/08 04:05:58;;;;;;;28.67;10.40;;;;;;;;;;5032123;28;20052;-51
2022/06/08 04:08:25;;;;;;;22.30;9.68;;;;;;;;;;5015208;28;20823;-51
2022/06/08 04:10:52;;;;;;;26.15;9.98;;;;;;;;;;5031803;28;20029;-49
2022/06/08 04:13:19;;;;;;;24.52;9.70;;;;;;;;;;5032051;28;20520;-51
2022/06/08 04:15:46;;;;;;;23.90;10.05;;;;;;;;;;5032389;28;20124;-52
2022/06/08 04:18:18;;;;;;;29.27;9.65;;;;;;;;;;5032027;28;20029;-50
2022/06/08 04:20:46;;;;;;;25.80;9.95;;;;;;;;;;5032938;28;20033;-54
2022/06/08 04:23:14;;;;;;;24.63;9.43;;;;;;;;;;5033354;28;20052;-48
2022/06/08 04:25:42;;;;;;;27.05;10.18;;;;;;;;;;5031756;28;20037;-50
2022/06/08 04:28:10;;;;;;;28.83;10.77;;;;;;;;;;5031914;28;20044;-54
2022/06/08 04:30:37;;;;;;;28.00;10.13;;;;;;;;;;5032284;28;20120;-49
2022/06/08 04:33:04;;;;;;;26.15;9.43;;;;;;;;;;5031722;28;20060;-51
2022/06/08 04:35:34;;;;;;;24.08;9.13;;;;;;;;;;5031598;28;20053;-50
2022/06/08 04:38:01;;;;;;;21.42;9.10;;;;;;;;;;5032114;28;20037;-50
2022/06/08 04:40:28;;;;;;;24.90;9.77;;;;;;;;;;5031108;28;20029;-48
2022/06/08 04:42:56;;;;;;;22.48;9.45;;;;;;;;;;5031439;28;20037;-52
2022/06/08 04:45:23;;;;;;;21.40;8.75;;;;;;;;;;5031852;28;20075;-51
2022/06/08 04:47:50;;;;;;;24.27;9.52;;;;;;;;;;5031696;28;20115;-51
2022/06/08 04:50:17;;;;;;;24.98;9.73;;;;;;;;;;5031607;28;20026;-53
2022/06/08 04:52:44;;;;;;;23.35;9.68;;;;;;;;;;5031890;28;20025;-50
2022/06/08 04:55:13;;;;;;;22.25;9.23;;;;;;;;;;5031535;28;20036;-51
2022/06/08 04:57:40;;;;;;;25.05;9.68;;;;;;;;;;5031699;28;20025;-51
2022/06/08 05:00:08;;;;;;;22.52;9.77;;;;;;;;;;5031663;28;20456;-50
2022/06/08 05:02:44;;;;;;;22.40;9.73;;;;;;;;;;5031432;28;20033;-52
2022/06/08 05:05:16;;;;;;;21.80;8.88;;;;;;;;;;5031367;28;20040;-49
2022/06/08 05:07:43;;;;;;;27.10;9.68;;;;;;;;;;5031693;28;20060;-54
2022/06/08 05:10:11;;;;;;;20.98;9.05;;;;;;;;;;5031269;28;20030;-51
2022/06/08 05:12:38;;;;;;;22.05;9.95;;;;;;;;;;5031399;28;20399;-49
2022/06/08 05:15:07;;;;;;;22.83;9.63;;;;;;;;;;5031434;28;20050;-52
2022/06/08 05:17:34;;;;;;;25.02;10.15;;;;;;;;;;5031198;28;20048;-50
2022/06/08 05:20:02;;;;;;;21.00;9.13;;;;;;;;;;5031497;28;20040;-55
2022/06/08 05:22:29;;;;;;;21.98;9.80;;;;;;;;;;5031507;28;20033;-53
2022/06/08 05:24:56;;;;;;;23.55;9.52;;;;;;;;;;5031153;28;20025;-53
2022/06/08 05:27:23;;;;;;;18.35;8.35;;;;;;;;;;5031370;28;20036;-50
2022/06/08 05:29:50;;;;;;;19.40;9.27;;;;;;;;;;5031631;28;20167;-55
2022/06/08 05:32:17;;;;;;;20.45;9.20;;;;;;;;;;5030935;28;20042;-55
2022/06/08 05:34:44;;;;;;;18.75;8.60;;;;;;;;;;5031212;28;20109;-53
2022/06/08 05:37:11;;;;;;;20.40;8.25;;;;;;;;;;5031724;28;20025;-49
2022/06/08 05:39:38;;;;;;;22.52;9.45;;;;;;;;;;5031293;28;20022;-54
2022/06/08 05:42:05;;;;;;;22.38;9.40;;;;;;;;;;5030953;28;20083;-53
2022/06/08 05:44:32;;;;;;;22.58;10.18;;;;;;;;;;5031513;28;20039;-53
2022/06/08 05:46:59;;;;;;;21.55;9.82;;;;;;;;;;5031073;28;20068;-53
2022/06/08 05:49:26;;;;;;;20.50;9.30;;;;;;;;;;5030638;28;20037;-54
2022/06/08 05:51:54;;;;;;;18.02;9.15;;;;;;;;;;5034831;28;20592;-54
2022/06/08 05:54:21;;;;;;;23.90;9.68;;;;;;;;;;5034737;28;20029;-52
2022/06/08 05:56:48;;;;;;;22.55;9.38;;;;;;;;;;5034714;28;20040;-54
2022/06/08 05:59:15;;;;;;;20.55;8.45;;;;;;;;;;5035051;28;20040;-52
2022/06/08 06:01:42;;;;;;;18.00;9.15;;;;;;;;;;5034541;28;20491;-50
2022/06/08 06:04:09;;;;;;;21.17;9.13;;;;;;;;;;5016529;28;20128;-51
2022/06/08 06:06:36;;;;;;;18.05;8.90;;;;;;;;;;5034639;28;20037;-53
2022/06/08 06:09:04;;;;;;;18.95;9.07;;;;;;;;;;5034724;28;20022;-54
2022/06/08 06:11:32;;;;;;;22.88;10.85;;;;;;;;;;5034181;28;20029;-51
2022/06/08 06:13:59;;;;;;;15.75;8.55;;;;;;;;;;5016757;28;20072;-54
2022/06/08 06:16:26;;;;;;;22.13;8.70;;;;;;;;;;5034443;28;20064;-53
2022/06/08 06:18:53;;;;;;;19.80;9.52;;;;;;;;;;5034339;28;20112;-52
2022/06/08 06:21:25;;;;;;;18.05;9.48;;;;;;;;;;5034443;28;20034;-54
2022/06/08 06:23:55;;;;;;;19.60;9.03;;;;;;;;;;5033720;28;20487;-52
2022/06/08 06:26:22;;;;;;;16.83;9.27;;;;;;;;;;5034348;28;20114;-55
2022/06/08 06:28:50;;;;;;;18.25;9.57;;;;;;;;;;5034392;28;20032;-54
2022/06/08 06:31:32;;;;;;;19.45;9.10;;;;;;;;;;5184036;22;20050;-50
2022/06/08 06:33:59;;;;;;;19.48;9.10;;;;;;;;;;5000800;28;20029;-55
2022/06/08 06:36:26;;;;;;;22.63;9.75;;;;;;;;;;4994384;28;20113;-54
2022/06/08 06:38:53;;;;;;;22.00;10.10;;;;;;;;;;4995098;28;20498;-56
2022/06/08 06:41:21;;;;;;;16.90;8.68;;;;;;;;;;4994860;28;20018;-54
2022/06/08 06:43:49;;;;;;;17.77;9.00;;;;;;;;;;4994413;28;20034;-56
2022/06/08 06:46:16;;;;;;;18.50;9.75;;;;;;;;;;4994296;28;20026;-54
2022/06/08 06:48:43;;;;;;;20.15;8.77;;;;;;;;;;4994590;28;20026;-55
2022/06/08 06:51:11;;;;;;;18.60;8.93;;;;;;;;;;4993989;28;20073;-53
2022/06/08 06:53:38;;;;;;;17.70;8.95;;;;;;;;;;4994862;28;20030;-55
2022/06/08 06:56:06;;;;;;;18.13;9.32;;;;;;;;;;4993998;28;20022;-55
2022/06/08 06:58:33;;;;;;;23.48;9.52;;;;;;;;;;4994367;28;20030;-52
2022/06/08 07:01:00;;;;;;;22.60;9.93;;;;;;;;;;4994353;28;20022;-56
2022/06/08 07:03:27;;;;;;;18.20;8.85;;;;;;;;;;4994050;28;20548;-57
2022/06/08 07:05:54;;;;;;;22.73;9.50;;;;;;;;;;4993789;28;20034;-53
2022/06/08 07:08:21;;;;;;;18.50;9.15;;;;;;;;;;4994525;28;20022;-55
2022/06/08 07:13:33;;;;;;;19.23;9.43;;;;;;;;;;4994269;28;20113;-54
2022/06/08 07:16:00;;;;;;;19.25;9.32;;;;;;;;;;4994429;28;20026;-57
2022/06/08 07:18:28;;;;;;;19.75;9.65;;;;;;;;;;4993267;28;20035;-55
2022/06/08 07:20:55;;;;;;;16.60;8.82;;;;;;;;;;4994242;28;20034;-54
2022/06/08 07:23:22;;;;;;;17.40;8.98;;;;;;;;;;4993477;28;20045;-55
2022/06/08 07:25:49;;;;;;;17.55;8.90;;;;;;;;;;4994204;28;20425;-55
2022/06/08 07:28:16;;;;;;;21.55;9.25;;;;;;;;;;4994092;28;20054;-53
2022/06/08 07:30:43;;;;;;;18.15;9.80;;;;;;;;;;4993367;28;20030;-55
2022/06/08 07:33:10;;;;;;;17.63;8.80;;;;;;;;;;4993723;28;20057;-55
2022/06/08 07:35:37;;;;;;;17.98;9.18;;;;;;;;;;4993287;28;20062;-55
2022/06/08 07:38:04;;;;;;;16.92;9.02;;;;;;;;;;4993815;28;20480;-54
2022/06/08 07:40:31;;;;;;;20.33;9.43;;;;;;;;;;4993586;28;20512;-53
2022/06/08 07:42:58;;;;;;;19.38;10.00;;;;;;;;;;4993629;28;20030;-55
2022/06/08 07:45:25;;;;;;;16.98;9.15;;;;;;;;;;4993845;28;20192;-53
2022/06/08 07:50:37;;;;;;;22.25;9.82;;;;;;;;;;4993844;28;20042;-56
2022/06/08 07:53:04;;;;;;;17.52;9.40;;;;;;;;;;4993221;28;20026;-53
2022/06/08 07:55:31;;;;;;;16.50;9.60;;;;;;;;;;4993336;28;20030;-52
2022/06/08 07:57:58;;;;;;;18.17;8.85;;;;;;;;;;4993643;28;20026;-56
2022/06/08 08:00:26;;;;;;;18.95;9.48;;;;;;;;;;4992580;28;20034;-56
2022/06/08 08:02:53;;;;;;;15.10;8.65;;;;;;;;;;4993573;28;20042;-58
2022/06/08 08:05:20;;;;;;;19.13;9.40;;;;;;;;;;4993050;28;20038;-53
2022/06/08 08:07:47;;;;;;;16.98;8.80;;;;;;;;;;4992874;28;20030;-57
2022/06/08 08:10:15;;;;;;;18.08;9.43;;;;;;;;;;4993254;28;20049;-54
2022/06/08 08:12:42;;;;;;;16.65;9.27;;;;;;;;;;4992318;28;20030;-57
2022/06/08 08:15:09;;;;;;;17.65;9.32;;;;;;;;;;4992402;28;20037;-57
2022/06/08 08:17:36;;;;;;;18.63;9.48;;;;;;;;;;4992672;28;20061;-56
2022/06/08 08:20:04;;;;;;;19.40;9.73;;;;;;;;;;4992798;28;20053;-57
2022/06/08 08:22:31;;;;;;;18.63;9.48;;;;;;;;;;4992845;28;20122;-54
2022/06/08 08:24:58;;;;;;;14.55;8.45;;;;;;;;;;4974968;28;20459;-54
2022/06/08 08:27:25;;;;;;;15.77;9.07;;;;;;;;;;4993064;28;20034;-55
2022/06/08 08:29:52;;;;;;;19.27;9.45;;;;;;;;;;4992685;28;20066;-56
2022/06/08 08:32:19;;;;;;;15.27;8.55;;;;;;;;;;4992167;28;20471;-56
2022/06/08 08:34:46;;;;;;;15.45;8.80;;;;;;;;;;4992985;28;20037;-57
2022/06/08 08:37:13;;;;;;;13.75;9.13;;;;;;;;;;4992615;28;20026;-55
2022/06/08 08:39:40;;;;;;;17.10;9.10;;;;;;;;;;4992852;28;20134;-55
2022/06/08 08:42:23;;;;;;;16.77;9.25;;;;;;;;;;4984265;28;20030;-54
2022/06/08 08:45:01;;;;;;;14.00;8.32;;;;;;;;;;4992590;28;20026;-55
2022/06/08 08:47:38;;;;;;;16.30;9.20;;;;;;;;;;4992037;28;20034;-54
2022/06/08 08:50:17;;;;;;;14.57;8.70;;;;;;;;;;4992534;28;20519;-52
2022/06/08 08:52:46;;;;;;;18.35;9.00;;;;;;;;;;4991817;28;20038;-53
2022/06/08 08:55:17;;;;;;;15.35;8.75;;;;;;;;;;4992719;28;20495;-53
2022/06/08 08:58:02;;;;;;;18.13;9.05;;;;;;;;;;4992522;28;20038;-53
2022/06/08 09:00:37;;;;;;;19.17;9.27;;;;;;;;;;4991918;28;20113;-54
2022/06/08 09:03:24;;;;;;;18.48;8.50;;;;;;;;;;4992634;28;20080;-55
2022/06/08 09:05:52;;;;;;;17.48;9.30;;;;;;;;;;4981907;28;20113;-57
2022/06/08 09:08:20;;;;;;;15.75;8.75;;;;;;;;;;4992286;28;20088;-57
2022/06/08 09:10:48;;;;;;;18.60;9.68;;;;;;;;;;4992294;28;20373;-54
2022/06/08 09:13:22;;;;;;;17.42;8.93;;;;;;;;;;4991807;28;20403;-53
2022/06/08 09:15:56;;;;;;;15.70;8.85;;;;;;;;;;4992853;28;20038;-55
2022/06/08 09:18:34;;;;;;;16.17;8.85;;;;;;;;;;4991724;28;20046;-52
2022/06/08 09:21:20;;;;;;;16.88;8.88;;;;;;;;;;4992399;28;20034;-55
2022/06/08 09:23:49;;;;;;;15.10;8.18;;;;;;;;;;4992249;28;20062;-57
2022/06/08 09:26:25;;;;;;;17.33;9.70;;;;;;;;;;4994419;28;20042;-55
2022/06/08 09:29:08;;;;;;;23.42;8.57;;;;;;;;;;4995251;28;20037;-57
2022/06/08 09:31:36;;;;;;;18.08;9.10;;;;;;;;;;4995093;28;20054;-56
2022/06/08 09:34:08;;;;;;;16.48;8.60;;;;;;;;;;4995966;28;20035;-55
2022/06/08 09:36:35;;;;;;;16.88;9.20;;;;;;;;;;4995607;28;20038;-53
2022/06/08 09:39:01;;;;;;;19.92;9.35;;;;;;;;;;4995947;28;20120;-55
2022/06/08 09:41:45;;;;;;;17.67;9.25;;;;;;;;;;4995505;28;20041;-52
2022/06/08 09:44:25;;;;;;;14.80;8.75;;;;;;;;;;4995495;28;20389;-55
2022/06/08 09:52:48;;;;;;;14.85;8.52;;;;;;;;;;5010284;28;20040;-54
2022/06/08 09:55:23;;;;;;;20.63;9.68;;;;;;;;;;5014912;28;20562;-52
2022/06/08 09:57:50;;;;;;;29.63;9.68;;;;;;;;;;4995400;28;20077;-58
2022/06/08 10:00:28;;;;;;;23.10;10.68;;;;;;;;;;4994645;28;20038;-59
2022/06/08 10:03:10;;;;;;;26.25;11.00;;;;;;;;;;4992920;28;20065;-54
2022/06/08 10:05:43;;;;;;;22.52;10.88;;;;;;;;;;4994295;28;20070;-55
2022/06/08 10:08:16;;;;;;;24.15;10.65;;;;;;;;;;4994803;28;20065;-49
2022/06/08 10:10:47;;;;;;;22.88;9.82;;;;;;;;;;4994426;28;20042;-54
2022/06/08 10:13:26;;;;;;;21.25;10.65;;;;;;;;;;4994063;28;20034;-53
2022/06/08 10:15:55;;;;;;;17.02;10.18;;;;;;;;;;4994303;28;20113;-54
2022/06/08 10:18:28;;;;;;;20.98;11.07;;;;;;;;;;4994375;28;20030;-49
2022/06/08 10:20:56;;;;;;;16.83;11.35;;;;;;;;;;4993465;28;20046;-52
2022/06/08 10:23:26;;;;;;;18.40;11.15;;;;;;;;;;4994493;28;20031;-55
2022/06/08 10:26:14;;;;;;;19.95;11.20;;;;;;;;;;4993626;28;20438;-54
2022/06/08 10:28:49;;;;;;;19.20;10.95;;;;;;;;;;4954754;28;20396;-51
2022/06/08 10:31:21;;;;;;;19.85;11.88;;;;;;;;;;4994059;28;20475;-51
2022/06/08 10:33:58;;;;;;;21.77;12.75;;;;;;;;;;4994604;28;20034;-54
2022/06/08 10:36:26;;;;;;;20.52;12.35;;;;;;;;;;4991734;28;20030;-54
2022/06/08 10:38:53;;;;;;;27.42;12.55;;;;;;;;;;4994293;28;20086;-54
2022/06/08 10:44:25;;;;;;;22.98;12.18;;;;;;;;;;4994362;28;20089;-55
2022/06/08 10:46:52;;;;;;;23.17;13.13;;;;;;;;;;4993068;28;20039;-54
2022/06/08 10:49:42;;;;;;;20.00;13.13;;;;;;;;;;4993388;28;20093;-58
2022/06/08 10:52:17;;;;;;;22.65;13.43;;;;;;;;;;4976033;28;20392;-53
2022/06/08 10:54:54;;;;;;;20.13;12.73;;;;;;;;;;4993405;28;20030;-55
2022/06/08 10:57:36;;;;;;;23.10;13.43;;;;;;;;;;4992727;28;20042;-56
2022/06/08 11:00:15;;;;;;;35.22;12.75;;;;;;;;;;4976175;28;20056;-51
2022/06/08 11:02:44;;;;;;;25.23;13.65;;;;;;;;;;4991792;28;20030;-54
2022/06/08 11:05:29;;;;;;;25.38;13.63;;;;;;;;;;4993364;28;20035;-55
2022/06/08 11:08:04;;;;;;;30.15;13.40;;;;;;;;;;4991756;28;20113;-54
2022/06/08 11:10:53;;;;;;;25.88;12.95;;;;;;;;;;4993393;28;20042;-56
2022/06/08 11:13:24;;;;;;;23.40;13.15;;;;;;;;;;4993023;28;20042;-56
2022/06/08 11:15:54;;;;;;;26.55;13.38;;;;;;;;;;4993770;28;20043;-57
2022/06/08 11:18:36;;;;;;;28.23;14.02;;;;;;;;;;4992797;28;20030;-54
2022/06/08 11:21:15;;;;;;;23.20;14.20;;;;;;;;;;4975235;28;20034;-57
2022/06/08 11:23:57;;;;;;;29.58;14.65;;;;;;;;;;4993852;28;20026;-57
2022/06/08 11:26:29;;;;;;;27.53;14.37;;;;;;;;;;4991876;28;20125;-53
2022/06/08 11:29:14;;;;;;;29.05;14.70;;;;;;;;;;4991957;28;20519;-53
2022/06/08 11:31:41;;;;;;;26.58;15.20;;;;;;;;;;4992672;28;20050;-53
2022/06/08 11:34:16;;;;;;;25.65;15.15;;;;;;;;;;4988557;28;20370;-53
2022/06/08 11:36:55;;;;;;;24.65;14.88;;;;;;;;;;4991576;28;20058;-55
2022/06/08 11:39:37;;;;;;;26.75;15.73;;;;;;;;;;4983404;28;20023;-56
2022/06/08 11:42:24;;;;;;;25.33;15.85;;;;;;;;;;4989744;28;20433;-51
2022/06/08 11:45:07;;;;;;;29.15;15.75;;;;;;;;;;4992272;28;20076;-50
2022/06/08 11:47:52;;;;;;;25.52;14.45;;;;;;;;;;4992406;28;20109;-55
2022/06/08 11:50:21;;;;;;;26.15;15.38;;;;;;;;;;4992231;28;20038;-53
2022/06/08 11:52:59;;;;;;;25.52;15.90;;;;;;;;;;4992575;28;20404;-53
2022/06/08 11:55:27;;;;;;;28.80;15.50;;;;;;;;;;4989971;28;20030;-52
2022/06/08 11:57:58;;;;;;;33.72;16.15;;;;;;;;;;4994028;28;20019;-53
2022/06/08 12:00:34;;;;;;;27.52;15.40;;;;;;;;;;4996280;28;20030;-55
2022/06/08 12:03:03;;;;;;;31.20;15.57;;;;;;;;;;4999536;28;20045;-52
2022/06/08 12:05:32;;;;;;;25.15;14.55;;;;;;;;;;4993232;28;20045;-56
2022/06/08 12:08:01;;;;;;;27.77;16.20;;;;;;;;;;4992082;28;20034;-55
2022/06/08 12:10:30;;;;;;;32.08;16.45;;;;;;;;;;4988667;28;20069;-53
2022/06/08 12:12:58;;;;;;;29.33;16.15;;;;;;;;;;4973434;28;20041;-58
2022/06/08 12:15:25;;;;;;;27.75;16.25;;;;;;;;;;4992684;28;20116;-58
2022/06/08 12:17:52;;;;;;;34.50;17.73;;;;;;;;;;4992282;28;20621;-58
2022/06/08 12:20:36;;;;;;;35.38;17.20;;;;;;;;;;4991691;28;20035;-57
2022/06/08 12:23:03;;;;;;;29.33;17.25;;;;;;;;;;4991507;28;20045;-59
2022/06/08 12:25:31;;;;;;;32.08;17.13;;;;;;;;;;4991851;28;20062;-57
2022/06/08 12:28:00;;;;;;;31.35;17.60;;;;;;;;;;4991839;28;20065;-58
2022/06/08 12:30:34;;;;;;;29.45;17.45;;;;;;;;;;4991933;28;20031;-54
2022/06/08 12:33:03;;;;;;;34.83;17.20;;;;;;;;;;4991303;28;20583;-54
2022/06/08 12:35:34;;;;;;;31.63;17.25;;;;;;;;;;4991379;28;20479;-51
2022/06/08 12:38:07;;;;;;;32.13;17.73;;;;;;;;;;4991819;28;20436;-58
2022/06/08 12:40:35;;;;;;;28.85;16.98;;;;;;;;;;4991288;28;20117;-54
2022/06/08 12:43:10;;;;;;;29.50;17.23;;;;;;;;;;4973934;28;20523;-55
2022/06/08 12:45:37;;;;;;;33.08;16.77;;;;;;;;;;4990970;28;20042;-58
2022/06/08 12:48:22;;;;;;;34.00;18.13;;;;;;;;;;4991478;28;20030;-58
2022/06/08 12:50:49;;;;;;;34.92;17.77;;;;;;;;;;4991680;28;20034;-58
2022/06/08 12:53:16;;;;;;;34.05;18.77;;;;;;;;;;4991963;28;20034;-57
2022/06/08 12:55:43;;;;;;;28.58;18.25;;;;;;;;;;4990747;28;20412;-58
2022/06/08 12:58:10;;;;;;;28.70;18.25;;;;;;;;;;4992004;28;20121;-55
2022/06/08 13:00:38;;;;;;;31.60;18.75;;;;;;;;;;4991158;28;20088;-56
2022/06/08 13:03:15;;;;;;;31.63;18.50;;;;;;;;;;4991473;28;20027;-52
2022/06/08 13:05:42;;;;;;;32.50;18.77;;;;;;;;;;4990256;28;20065;-53
2022/06/08 13:08:14;;;;;;;31.98;18.92;;;;;;;;;;4990786;28;20030;-52
2022/06/08 13:10:41;;;;;;;31.33;19.87;;;;;;;;;;4991499;28;20077;-52
2022/06/08 13:13:15;;;;;;;37.10;19.42;;;;;;;;;;4991475;28;20273;-57
2022/06/08 13:15:44;;;;;;;31.77;19.98;;;;;;;;;;4990252;28;20037;-58
2022/06/08 13:18:16;;;;;;;32.67;19.75;;;;;;;;;;4990424;28;20042;-60
2022/06/08 13:20:43;;;;;;;31.80;19.83;;;;;;;;;;4991430;28;20477;-54
2022/06/08 13:23:10;;;;;;;32.95;19.42;;;;;;;;;;4991265;28;20037;-60
2022/06/08 13:25:37;;;;;;;31.23;19.42;;;;;;;;;;4974001;28;20046;-59
2022/06/08 13:28:11;;;;;;;33.85;20.30;;;;;;;;;;4990120;28;20031;-59
2022/06/08 13:30:38;;;;;;;29.98;19.30;;;;;;;;;;4991193;28;20035;-59
2022/06/08 13:33:56;;;;;;;32.22;19.02;;;;;;;;;;4990901;28;20050;-59
2022/06/08 13:35:53;;;;;;;33.65;19.92;;;;;;;;;;4991018;28;20046;-59
2022/06/08 13:38:20;;;;;;;35.10;19.95;;;;;;;;;;4988550;28;20039;-60
2022/06/08 13:40:47;;;;;;;33.55;19.88;;;;;;;;;;4989540;28;20042;-59
2022/06/08 13:43:14;;;;;;;33.33;20.50;;;;;;;;;;4990174;28;20042;-59
2022/06/08 13:45:43;;;;;;;33.45;19.88;;;;;;;;;;4990699;28;20031;-59
2022/06/08 13:48:14;;;;;;;30.58;18.92;;;;;;;;;;4989474;28;20041;-59
2022/06/08 13:50:43;;;;;;;39.28;19.38;;;;;;;;;;4990573;28;20044;-60
2022/06/08 13:53:21;;;;;;;35.13;18.88;;;;;;;;;;4990843;28;20551;-60
2022/06/08 13:55:50;;;;;;;31.42;20.05;;;;;;;;;;4989712;28;20050;-61
2022/06/08 13:58:18;;;;;;;35.13;18.15;;;;;;;;;;4990263;28;20026;-60
2022/06/08 14:00:49;;;;;;;31.92;18.38;;;;;;;;;;4971690;28;20050;-60
2022/06/08 14:03:19;;;;;;;33.67;19.20;;;;;;;;;;4990609;28;20383;-58
2022/06/08 14:14:05;;;;;;;32.33;18.73;;;;;;;;;;4993501;28;20041;-57
2022/06/08 14:16:32;;;;;;;30.70;17.30;;;;;;;;;;4994450;28;20034;-58
2022/06/08 14:19:01;;;;;;;30.27;17.85;;;;;;;;;;4992782;28;20034;-57
2022/06/08 14:21:28;;;;;;;29.35;17.27;;;;;;;;;;4992955;28;20045;-57
2022/06/08 14:23:59;;;;;;;34.72;18.30;;;;;;;;;;4994316;28;20118;-58
2022/06/08 14:26:28;;;;;;;29.30;17.90;;;;;;;;;;4992607;28;20042;-56
2022/06/08 14:28:56;;;;;;;29.48;17.20;;;;;;;;;;4993583;28;20561;-56
2022/06/08 14:31:23;;;;;;;28.45;18.20;;;;;;;;;;4992319;28;20500;-58
2022/06/08 14:33:50;;;;;;;31.55;18.10;;;;;;;;;;4992909;28;20031;-57
2022/06/08 14:36:18;;;;;;;28.42;17.85;;;;;;;;;;4993820;28;20046;-59
2022/06/08 14:38:47;;;;;;;32.35;16.85;;;;;;;;;;4975312;28;20042;-59
2022/06/08 14:41:14;;;;;;;31.60;17.73;;;;;;;;;;4993137;28;20038;-58
2022/06/08 14:43:42;;;;;;;30.02;17.65;;;;;;;;;;4993425;28;20412;-60
2022/06/08 14:46:19;;;;;;;30.88;16.83;;;;;;;;;;4995397;28;20045;-61
2022/06/08 14:48:47;;;;;;;33.33;16.77;;;;;;;;;;4994956;28;20026;-60
2022/06/08 14:51:18;;;;;;;28.77;16.52;;;;;;;;;;4993370;28;20181;-61
2022/06/08 14:53:46;;;;;;;26.73;16.83;;;;;;;;;;4992069;28;20411;-61
2022/06/08 14:56:25;;;;;;;31.95;17.02;;;;;;;;;;4993750;28;20037;-61
2022/06/08 14:58:57;;;;;;;28.67;16.08;;;;;;;;;;4993744;28;20477;-60
2022/06/08 15:01:26;;;;;;;30.30;15.52;;;;;;;;;;4993228;28;20117;-60
2022/06/08 15:03:54;;;;;;;26.65;16.58;;;;;;;;;;4993249;28;20038;-61
2022/06/08 15:06:20;;;;;;;36.60;16.73;;;;;;;;;;4993353;28;20049;-61
2022/06/08 15:08:48;;;;;;;27.13;16.15;;;;;;;;;;4993631;28;20104;-60
2022/06/08 15:14:20;;;;;;;26.30;15.25;;;;;;;;;;4993193;28;20081;-61
2022/06/08 15:16:47;;;;;;;30.30;16.35;;;;;;;;;;4993188;28;20437;-60